Time;durP1;ratioP1;P1;durP2;ratioP2;P2;SDS_P1;SDS_P2;PMS_P1;PMS_P2;Temp;Humidity;BMP_temperature;BMP_pressure;BME280_temperature;BME280_humidity;BME280_pressure;Samples;Min_cycle;Max_cycle;Signal;HPM_P1;HPM_P2
2020/12/08 00:00:38;;;;;;;6.53;3.50;;;;;;;;;;5014720;28;20429;-64
2020/12/08 00:03:04;;;;;;;1.52;1.52;;;;;;;;;;5014528;28;20436;-66
2020/12/08 00:05:30;;;;;;;2.63;2.53;;;;;;;;;;5014787;28;20596;-64
2020/12/08 00:07:56;;;;;;;2.10;2.00;;;;;;;;;;5014480;28;20408;-65
2020/12/08 00:10:22;;;;;;;1.85;1.80;;;;;;;;;;5014085;28;20437;-65
2020/12/08 00:12:48;;;;;;;1.52;1.52;;;;;;;;;;5014374;28;20185;-65
2020/12/08 00:15:15;;;;;;;1.33;1.23;;;;;;;;;;5014387;28;20174;-65
2020/12/08 00:17:41;;;;;;;2.25;1.38;;;;;;;;;;5013544;28;20174;-65
2020/12/08 00:20:07;;;;;;;1.80;1.70;;;;;;;;;;5013674;28;20307;-65
2020/12/08 00:22:34;;;;;;;0.90;0.90;;;;;;;;;;5014601;28;20503;-65
2020/12/08 00:25:00;;;;;;;2.03;1.92;;;;;;;;;;5014065;28;20660;-65
2020/12/08 00:27:26;;;;;;;1.95;1.88;;;;;;;;;;5014031;28;20185;-65
2020/12/08 00:29:52;;;;;;;1.50;1.13;;;;;;;;;;5013718;28;20201;-66
2020/12/08 00:32:18;;;;;;;1.70;1.70;;;;;;;;;;5013991;28;20660;-65
2020/12/08 00:34:44;;;;;;;3.92;2.40;;;;;;;;;;5013835;28;20444;-65
2020/12/08 00:37:10;;;;;;;1.30;1.30;;;;;;;;;;5014465;28;20204;-66
2020/12/08 00:39:36;;;;;;;2.42;2.22;;;;;;;;;;5013430;28;20691;-65
2020/12/08 00:42:06;;;;;;;3.22;3.03;;;;;;;;;;5013750;28;20260;-65
2020/12/08 00:44:32;;;;;;;1.27;1.27;;;;;;;;;;5013814;28;20174;-66
2020/12/08 00:46:58;;;;;;;3.90;2.30;;;;;;;;;;5013885;28;20699;-65
2020/12/08 00:49:24;;;;;;;3.80;3.60;;;;;;;;;;5013593;28;20213;-65
2020/12/08 00:51:55;;;;;;;1.00;1.00;;;;;;;;;;5013725;28;20408;-65
2020/12/08 00:54:21;;;;;;;2.58;2.38;;;;;;;;;;5013603;28;20652;-65
2020/12/08 00:56:47;;;;;;;2.28;1.48;;;;;;;;;;5013515;28;20178;-65
2020/12/08 00:59:13;;;;;;;2.10;2.00;;;;;;;;;;5013161;28;20237;-65
2020/12/08 01:01:39;;;;;;;2.08;1.98;;;;;;;;;;5013420;28;20215;-65
2020/12/08 01:04:08;;;;;;;3.72;2.15;;;;;;;;;;5013373;28;20260;-65
2020/12/08 01:06:34;;;;;;;1.30;1.30;;;;;;;;;;5013336;28;20524;-65
2020/12/08 01:09:00;;;;;;;1.30;1.23;;;;;;;;;;5012886;28;20236;-66
2020/12/08 01:11:26;;;;;;;1.90;1.83;;;;;;;;;;5013308;28;20212;-66
2020/12/08 01:13:52;;;;;;;1.27;1.27;;;;;;;;;;5013281;28;20789;-66
2020/12/08 01:16:23;;;;;;;2.00;1.90;;;;;;;;;;5013103;28;20404;-65
2020/12/08 01:18:49;;;;;;;3.17;3.03;;;;;;;;;;5012799;28;20405;-65
2020/12/08 01:21:16;;;;;;;2.00;1.92;;;;;;;;;;5013114;28;20265;-65
2020/12/08 01:23:43;;;;;;;5.95;2.50;;;;;;;;;;5013046;28;20166;-65
2020/12/08 01:26:09;;;;;;;2.90;2.70;;;;;;;;;;5013071;28;20212;-65
2020/12/08 01:28:35;;;;;;;3.10;2.77;;;;;;;;;;5012842;28;20236;-65
2020/12/08 01:31:01;;;;;;;3.60;3.40;;;;;;;;;;5011472;28;20928;-65
2020/12/08 01:33:29;;;;;;;2.50;2.40;;;;;;;;;;5012928;28;20220;-65
2020/12/08 01:35:55;;;;;;;2.35;2.25;;;;;;;;;;5012710;28;20466;-65
2020/12/08 01:38:21;;;;;;;3.30;3.15;;;;;;;;;;5012844;28;20659;-65
2020/12/08 01:40:56;;;;;;;2.72;2.63;;;;;;;;;;5012423;28;20280;-65
2020/12/08 01:43:23;;;;;;;2.05;1.98;;;;;;;;;;5012753;28;20265;-65
2020/12/08 01:45:49;;;;;;;1.77;1.67;;;;;;;;;;5012572;28;20748;-65
2020/12/08 01:48:15;;;;;;;2.15;2.05;;;;;;;;;;5012496;28;20175;-65
2020/12/08 01:50:42;;;;;;;3.05;2.58;;;;;;;;;;5010972;28;20224;-66
2020/12/08 01:53:11;;;;;;;1.48;1.38;;;;;;;;;;5012600;28;20218;-65
2020/12/08 01:55:38;;;;;;;2.47;2.35;;;;;;;;;;5012582;28;20184;-65
2020/12/08 01:58:14;;;;;;;2.83;2.72;;;;;;;;;;5012447;28;20552;-65
2020/12/08 02:00:40;;;;;;;2.05;1.80;;;;;;;;;;5012032;28;20285;-66
2020/12/08 02:03:06;;;;;;;1.38;1.27;;;;;;;;;;5012264;28;20518;-65
2020/12/08 02:05:32;;;;;;;2.25;2.15;;;;;;;;;;5012316;28;20272;-65
2020/12/08 02:07:58;;;;;;;1.85;1.73;;;;;;;;;;5012292;28;20169;-65
2020/12/08 02:10:24;;;;;;;2.58;2.22;;;;;;;;;;5011869;28;20737;-65
2020/12/08 02:12:50;;;;;;;1.17;1.08;;;;;;;;;;5012206;28;20220;-65
2020/12/08 02:15:16;;;;;;;2.23;2.13;;;;;;;;;;5012149;28;20247;-65
2020/12/08 02:17:42;;;;;;;1.37;1.37;;;;;;;;;;5011984;28;20419;-65
2020/12/08 02:20:08;;;;;;;2.35;2.25;;;;;;;;;;5033204;23;20545;-64
2020/12/08 02:22:34;;;;;;;2.83;1.87;;;;;;;;;;5031760;28;20208;-64
2020/12/08 02:25:00;;;;;;;1.93;1.80;;;;;;;;;;5031642;28;20404;-64
2020/12/08 02:27:26;;;;;;;1.85;1.27;;;;;;;;;;5030394;28;20466;-64
2020/12/08 02:29:52;;;;;;;3.23;2.93;;;;;;;;;;5031317;28;20220;-64
2020/12/08 02:32:18;;;;;;;5.20;3.13;;;;;;;;;;5031715;28;20415;-64
2020/12/08 02:34:44;;;;;;;3.27;3.10;;;;;;;;;;5031686;28;20173;-64
2020/12/08 02:37:10;;;;;;;0.95;0.95;;;;;;;;;;5030887;28;20906;-64
2020/12/08 02:39:36;;;;;;;1.73;1.67;;;;;;;;;;5031311;28;20204;-64
2020/12/08 02:42:02;;;;;;;1.60;1.50;;;;;;;;;;5030683;28;20177;-64
2020/12/08 02:44:28;;;;;;;2.78;2.58;;;;;;;;;;5031560;28;20895;-64
2020/12/08 02:46:54;;;;;;;4.77;3.73;;;;;;;;;;5031576;28;20211;-64
2020/12/08 02:49:20;;;;;;;1.58;1.58;;;;;;;;;;5031104;28;20617;-64
2020/12/08 02:51:46;;;;;;;3.38;1.83;;;;;;;;;;5031514;28;20262;-64
2020/12/08 02:54:12;;;;;;;0.97;0.97;;;;;;;;;;5031560;28;20200;-64
2020/12/08 02:56:38;;;;;;;1.60;1.50;;;;;;;;;;5031502;28;20403;-64
2020/12/08 02:59:04;;;;;;;0.90;0.90;;;;;;;;;;5031652;28;20173;-63
2020/12/08 03:01:30;;;;;;;5.87;3.27;;;;;;;;;;5039872;28;20177;-64
2020/12/08 03:03:56;;;;;;;2.17;2.08;;;;;;;;;;5038850;28;20418;-63
2020/12/08 03:06:22;;;;;;;1.52;1.45;;;;;;;;;;5033487;28;20169;-64
2020/12/08 03:08:48;;;;;;;3.20;3.00;;;;;;;;;;5031097;28;20257;-65
2020/12/08 03:11:14;;;;;;;1.77;1.75;;;;;;;;;;5031255;28;20509;-64
2020/12/08 03:13:41;;;;;;;2.33;2.20;;;;;;;;;;5031311;28;20177;-64
2020/12/08 03:16:07;;;;;;;2.58;2.45;;;;;;;;;;5031316;28;20525;-63
2020/12/08 03:18:33;;;;;;;2.70;2.53;;;;;;;;;;5031192;28;20184;-64
2020/12/08 03:20:59;;;;;;;2.05;1.98;;;;;;;;;;5030884;28;20489;-64
2020/12/08 03:23:25;;;;;;;2.60;2.40;;;;;;;;;;5031265;28;20208;-64
2020/12/08 03:25:51;;;;;;;1.77;1.77;;;;;;;;;;5031216;28;20764;-64
2020/12/08 03:28:17;;;;;;;3.08;2.88;;;;;;;;;;5031105;28;20185;-64
2020/12/08 03:30:43;;;;;;;2.40;2.10;;;;;;;;;;5030940;28;20559;-64
2020/12/08 03:33:09;;;;;;;2.50;2.30;;;;;;;;;;5031075;28;20905;-64
2020/12/08 03:35:35;;;;;;;2.10;1.90;;;;;;;;;;5031170;28;20640;-64
2020/12/08 03:38:01;;;;;;;1.05;1.05;;;;;;;;;;5031095;28;20176;-64
2020/12/08 03:40:27;;;;;;;5.33;4.83;;;;;;;;;;5030772;28;20208;-64
2020/12/08 03:42:53;;;;;;;1.00;1.00;;;;;;;;;;5030999;28;20413;-64
2020/12/08 03:45:19;;;;;;;1.97;1.87;;;;;;;;;;5031045;28;20961;-63
2020/12/08 03:47:45;;;;;;;3.43;2.30;;;;;;;;;;5030980;28;20407;-64
2020/12/08 03:50:11;;;;;;;3.03;2.83;;;;;;;;;;5030678;28;20459;-64
2020/12/08 03:52:37;;;;;;;2.53;2.33;;;;;;;;;;5030997;28;20169;-64
2020/12/08 03:55:03;;;;;;;1.45;1.45;;;;;;;;;;5034140;28;20702;-64
2020/12/08 03:57:29;;;;;;;1.33;1.25;;;;;;;;;;5034431;28;20207;-64
2020/12/08 03:59:55;;;;;;;3.03;2.85;;;;;;;;;;5034113;28;20571;-64
2020/12/08 04:02:21;;;;;;;3.00;2.80;;;;;;;;;;5034346;28;20184;-64
2020/12/08 04:04:50;;;;;;;3.43;3.23;;;;;;;;;;5033073;28;20803;-64
2020/12/08 04:07:16;;;;;;;1.42;1.42;;;;;;;;;;5034260;28;20415;-64
2020/12/08 04:09:42;;;;;;;0.60;0.60;;;;;;;;;;5033863;28;20200;-64
2020/12/08 04:12:08;;;;;;;1.42;1.40;;;;;;;;;;5034192;28;20230;-64
2020/12/08 04:14:34;;;;;;;2.28;2.28;;;;;;;;;;5032939;28;20207;-64
2020/12/08 04:17:00;;;;;;;3.10;2.90;;;;;;;;;;5034141;28;20200;-64
2020/12/08 04:19:26;;;;;;;2.53;2.42;;;;;;;;;;5033668;28;20189;-64
2020/12/08 04:21:52;;;;;;;1.48;1.48;;;;;;;;;;5034070;28;20169;-64
2020/12/08 04:24:17;;;;;;;1.67;1.67;;;;;;;;;;5033986;28;20551;-64
2020/12/08 04:26:45;;;;;;;2.90;2.73;;;;;;;;;;5033870;28;20415;-64
2020/12/08 04:29:11;;;;;;;2.30;2.20;;;;;;;;;;5033432;28;20470;-64
2020/12/08 04:31:37;;;;;;;3.83;3.53;;;;;;;;;;5033783;28;20551;-64
2020/12/08 04:34:03;;;;;;;3.67;2.67;;;;;;;;;;5033740;28;20165;-64
2020/12/08 04:36:29;;;;;;;4.55;4.15;;;;;;;;;;5033761;28;20187;-64
2020/12/08 04:38:55;;;;;;;4.35;4.03;;;;;;;;;;5033433;28;20208;-64
2020/12/08 04:41:22;;;;;;;2.40;2.30;;;;;;;;;;5033576;28;20270;-64
2020/12/08 04:43:48;;;;;;;2.10;1.85;;;;;;;;;;5033539;28;20267;-64
2020/12/08 04:46:17;;;;;;;2.03;1.92;;;;;;;;;;5033480;28;20177;-64
2020/12/08 04:48:43;;;;;;;2.00;1.90;;;;;;;;;;5033270;28;20197;-64
2020/12/08 04:51:09;;;;;;;2.25;2.05;;;;;;;;;;5033329;28;20193;-64
2020/12/08 04:53:35;;;;;;;2.17;2.07;;;;;;;;;;5033449;28;20591;-64
2020/12/08 04:56:01;;;;;;;2.17;2.08;;;;;;;;;;5033273;28;20457;-64
2020/12/08 04:58:28;;;;;;;3.00;2.80;;;;;;;;;;5033175;28;20169;-64
2020/12/08 05:00:54;;;;;;;4.00;3.53;;;;;;;;;;5032984;28;20231;-64
2020/12/08 05:03:27;;;;;;;0.70;0.70;;;;;;;;;;5033326;28;20173;-64
2020/12/08 05:05:54;;;;;;;2.33;2.20;;;;;;;;;;5032757;28;20403;-64
2020/12/08 05:08:20;;;;;;;3.35;3.22;;;;;;;;;;5033165;28;20212;-63
2020/12/08 05:10:47;;;;;;;1.65;1.55;;;;;;;;;;5032700;28;20228;-64
2020/12/08 05:13:25;;;;;;;3.30;3.00;;;;;;;;;;5032941;28;20173;-64
2020/12/08 05:15:58;;;;;;;2.05;2.00;;;;;;;;;;5032948;28;20168;-64
2020/12/08 05:18:24;;;;;;;1.88;1.88;;;;;;;;;;5032884;28;20261;-64
2020/12/08 05:20:50;;;;;;;2.92;2.80;;;;;;;;;;5032545;28;20627;-64
2020/12/08 05:23:16;;;;;;;2.05;1.95;;;;;;;;;;5032811;28;20165;-64
2020/12/08 05:25:45;;;;;;;2.72;2.63;;;;;;;;;;5032644;28;20632;-64
2020/12/08 05:28:17;;;;;;;2.05;1.95;;;;;;;;;;5032800;28;20181;-64
2020/12/08 05:30:44;;;;;;;0.70;0.70;;;;;;;;;;5032413;28;20231;-64
2020/12/08 05:33:15;;;;;;;3.38;2.78;;;;;;;;;;5032654;28;20634;-64
2020/12/08 05:35:41;;;;;;;5.82;4.35;;;;;;;;;;5032634;28;20169;-64
2020/12/08 05:38:09;;;;;;;4.13;3.83;;;;;;;;;;5032489;28;20263;-64
2020/12/08 05:40:36;;;;;;;3.03;2.83;;;;;;;;;;5032343;28;20208;-64
2020/12/08 05:43:02;;;;;;;1.67;1.20;;;;;;;;;;5032506;28;20738;-64
2020/12/08 05:45:28;;;;;;;2.10;1.80;;;;;;;;;;5032445;28;20227;-64
2020/12/08 05:47:58;;;;;;;2.70;2.55;;;;;;;;;;5032392;28;20176;-64
2020/12/08 05:50:26;;;;;;;1.83;1.80;;;;;;;;;;5036245;28;20280;-64
2020/12/08 05:52:59;;;;;;;3.15;2.35;;;;;;;;;;5036159;28;20172;-64
2020/12/08 05:55:28;;;;;;;2.25;2.15;;;;;;;;;;5035933;28;20173;-64
2020/12/08 05:57:54;;;;;;;5.13;2.53;;;;;;;;;;5033641;28;20165;-64
2020/12/08 06:00:22;;;;;;;1.45;1.35;;;;;;;;;;5031839;28;20603;-65
2020/12/08 06:02:48;;;;;;;2.15;2.05;;;;;;;;;;5032106;28;20176;-64
2020/12/08 06:05:27;;;;;;;3.58;3.28;;;;;;;;;;5032005;28;20172;-64
2020/12/08 06:07:53;;;;;;;2.53;2.22;;;;;;;;;;5032154;28;20207;-65
2020/12/08 06:10:19;;;;;;;1.90;1.80;;;;;;;;;;5031727;28;20224;-64
2020/12/08 06:12:55;;;;;;;1.40;1.40;;;;;;;;;;5032348;28;20173;-64
2020/12/08 06:15:23;;;;;;;2.05;1.95;;;;;;;;;;5031751;28;20165;-64
2020/12/08 06:17:49;;;;;;;1.15;1.15;;;;;;;;;;5031364;28;20683;-65
2020/12/08 06:20:16;;;;;;;2.10;1.98;;;;;;;;;;5031443;28;20303;-64
2020/12/08 06:22:52;;;;;;;1.50;1.40;;;;;;;;;;5031875;28;20204;-65
2020/12/08 06:25:18;;;;;;;7.10;4.05;;;;;;;;;;5031551;28;20713;-65
2020/12/08 06:27:44;;;;;;;1.45;1.45;;;;;;;;;;5031687;28;20180;-64
2020/12/08 06:30:10;;;;;;;2.05;1.95;;;;;;;;;;5031175;28;20200;-65
2020/12/08 06:32:36;;;;;;;3.05;2.95;;;;;;;;;;5031675;28;20176;-64
2020/12/08 06:35:07;;;;;;;1.73;1.73;;;;;;;;;;5031678;28;20192;-65
2020/12/08 06:37:33;;;;;;;2.58;1.73;;;;;;;;;;5031628;28;20218;-64
2020/12/08 06:40:09;;;;;;;2.50;2.40;;;;;;;;;;5031296;28;20603;-64
2020/12/08 06:42:35;;;;;;;2.25;1.42;;;;;;;;;;5034768;28;20183;-64
2020/12/08 06:45:08;;;;;;;3.03;2.83;;;;;;;;;;5044848;28;20230;-64
2020/12/08 06:47:34;;;;;;;4.20;3.97;;;;;;;;;;5044122;28;20204;-64
2020/12/08 06:50:00;;;;;;;2.45;2.13;;;;;;;;;;5031442;28;20203;-64
2020/12/08 06:52:26;;;;;;;1.83;1.83;;;;;;;;;;5031722;28;20195;-64
2020/12/08 06:55:00;;;;;;;3.90;3.22;;;;;;;;;;5031673;28;20212;-64
2020/12/08 06:57:26;;;;;;;1.50;1.40;;;;;;;;;;5031524;28;20176;-65
2020/12/08 07:00:02;;;;;;;3.13;2.75;;;;;;;;;;5031236;28;20626;-65
2020/12/08 07:02:28;;;;;;;1.85;1.85;;;;;;;;;;5031505;28;20180;-64
2020/12/08 07:04:54;;;;;;;1.67;1.58;;;;;;;;;;5031521;28;20180;-65
2020/12/08 07:07:20;;;;;;;4.70;4.50;;;;;;;;;;5031370;28;20538;-65
2020/12/08 07:09:46;;;;;;;2.55;1.90;;;;;;;;;;5030883;28;20211;-64
2020/12/08 07:12:12;;;;;;;2.58;2.47;;;;;;;;;;5031367;28;20683;-64
2020/12/08 07:14:38;;;;;;;3.10;3.00;;;;;;;;;;5031408;28;20180;-65
2020/12/08 07:17:05;;;;;;;2.77;2.67;;;;;;;;;;5031308;28;20292;-65
2020/12/08 07:19:30;;;;;;;1.17;1.17;;;;;;;;;;5030911;28;20787;-64
2020/12/08 07:22:00;;;;;;;2.27;2.20;;;;;;;;;;5031373;28;20238;-65
2020/12/08 07:24:27;;;;;;;2.13;2.13;;;;;;;;;;5031197;28;20857;-64
2020/12/08 07:27:00;;;;;;;2.42;2.33;;;;;;;;;;5031280;28;20608;-65
2020/12/08 07:29:26;;;;;;;1.80;1.80;;;;;;;;;;5034902;28;20212;-65
2020/12/08 07:31:53;;;;;;;1.95;1.80;;;;;;;;;;5034946;28;20189;-65
2020/12/08 07:34:19;;;;;;;1.88;1.83;;;;;;;;;;5035067;28;20195;-65
2020/12/08 07:36:45;;;;;;;4.93;3.53;;;;;;;;;;5034936;28;20602;-64
2020/12/08 07:39:18;;;;;;;2.55;1.30;;;;;;;;;;5034423;28;20439;-64
2020/12/08 07:41:44;;;;;;;2.70;2.45;;;;;;;;;;5034935;28;20176;-64
2020/12/08 07:44:14;;;;;;;3.90;2.10;;;;;;;;;;5034826;28;20540;-65
2020/12/08 07:46:48;;;;;;;3.40;3.00;;;;;;;;;;5034704;28;20184;-65
2020/12/08 07:49:14;;;;;;;3.42;2.40;;;;;;;;;;5034318;28;20204;-64
2020/12/08 07:51:40;;;;;;;1.70;1.70;;;;;;;;;;5034560;28;20165;-65
2020/12/08 07:54:06;;;;;;;1.80;1.70;;;;;;;;;;5034509;28;20200;-64
2020/12/08 07:56:34;;;;;;;2.50;2.10;;;;;;;;;;5034535;28;20180;-64
2020/12/08 07:59:00;;;;;;;1.42;1.40;;;;;;;;;;5032331;28;20195;-64
2020/12/08 08:01:27;;;;;;;1.35;1.35;;;;;;;;;;5033618;28;20192;-64
2020/12/08 08:03:53;;;;;;;2.03;1.92;;;;;;;;;;5033900;28;20203;-65
2020/12/08 08:06:20;;;;;;;1.90;1.88;;;;;;;;;;5033637;28;20660;-65
2020/12/08 08:08:47;;;;;;;1.55;1.52;;;;;;;;;;5033869;28;20205;-65
2020/12/08 08:11:13;;;;;;;2.47;2.28;;;;;;;;;;5032733;28;20196;-64
2020/12/08 08:13:39;;;;;;;2.42;2.25;;;;;;;;;;5034019;28;20176;-64
2020/12/08 08:16:09;;;;;;;5.07;3.88;;;;;;;;;;5033769;28;20168;-65
2020/12/08 08:18:35;;;;;;;1.25;1.25;;;;;;;;;;5033709;28;20251;-64
2020/12/08 08:36:46;;;;;;;;;;;;;;;;;;;;;
2020/12/08 08:39:16;;;;;;;2.45;2.35;;;;;;;;;;5016316;28;20199;-89
2020/12/08 08:41:42;;;;;;;4.68;4.20;;;;;;;;;;5029817;23;20236;-65
2020/12/08 08:44:08;;;;;;;1.75;1.65;;;;;;;;;;5033049;28;20210;-65
2020/12/08 08:46:34;;;;;;;10.60;3.58;;;;;;;;;;5032268;28;20172;-65
2020/12/08 08:49:00;;;;;;;2.95;2.85;;;;;;;;;;5032774;28;20624;-65
2020/12/08 08:51:26;;;;;;;5.38;4.85;;;;;;;;;;5032669;28;20279;-64
2020/12/08 08:53:52;;;;;;;3.75;3.55;;;;;;;;;;5034474;28;20196;-65
2020/12/08 08:56:18;;;;;;;2.28;2.17;;;;;;;;;;5032849;28;20596;-65
2020/12/08 08:58:44;;;;;;;3.72;3.42;;;;;;;;;;5032976;28;20177;-64
2020/12/08 09:01:10;;;;;;;3.30;3.10;;;;;;;;;;5032044;28;20196;-65
2020/12/08 09:03:38;;;;;;;0.93;0.93;;;;;;;;;;5032779;28;20191;-65
2020/12/08 09:06:05;;;;;;;5.65;2.97;;;;;;;;;;5032830;28;20741;-64
2020/12/08 09:08:31;;;;;;;3.50;3.17;;;;;;;;;;5032456;28;20555;-65
2020/12/08 09:10:57;;;;;;;2.35;2.25;;;;;;;;;;5032734;28;20623;-65
2020/12/08 09:13:23;;;;;;;3.73;3.53;;;;;;;;;;5032001;28;20244;-65
2020/12/08 09:15:49;;;;;;;3.17;2.97;;;;;;;;;;5032565;28;20403;-65
2020/12/08 09:18:15;;;;;;;3.15;2.85;;;;;;;;;;5030223;28;20165;-65
2020/12/08 09:20:41;;;;;;;1.85;1.75;;;;;;;;;;5031477;28;20209;-65
2020/12/08 09:23:07;;;;;;;4.10;3.80;;;;;;;;;;5031867;28;20203;-65
2020/12/08 09:25:33;;;;;;;2.88;2.72;;;;;;;;;;5032136;28;20180;-63
2020/12/08 09:27:59;;;;;;;3.65;3.45;;;;;;;;;;5032288;28;20169;-63
2020/12/08 09:30:25;;;;;;;2.78;2.67;;;;;;;;;;5031894;28;20742;-65
2020/12/08 09:32:51;;;;;;;3.70;3.60;;;;;;;;;;5032091;28;20231;-65
2020/12/08 09:35:18;;;;;;;4.28;3.90;;;;;;;;;;5031720;28;20176;-64
2020/12/08 09:37:44;;;;;;;3.45;2.70;;;;;;;;;;5032102;28;20199;-64
2020/12/08 09:40:10;;;;;;;4.53;3.65;;;;;;;;;;5031804;28;20205;-64
2020/12/08 09:42:44;;;;;;;5.55;4.00;;;;;;;;;;5031929;28;20287;-64
2020/12/08 09:45:11;;;;;;;2.15;2.05;;;;;;;;;;5031627;28;20177;-65
2020/12/08 09:47:37;;;;;;;3.38;3.28;;;;;;;;;;5030615;28;20279;-65
2020/12/08 09:50:07;;;;;;;3.42;3.22;;;;;;;;;;5031075;28;20211;-65
2020/12/08 09:52:33;;;;;;;2.05;1.95;;;;;;;;;;5030530;28;20223;-65
2020/12/08 09:54:59;;;;;;;2.97;2.88;;;;;;;;;;5031924;28;20179;-65
2020/12/08 09:57:25;;;;;;;2.80;2.60;;;;;;;;;;5031192;28;20300;-64
2020/12/08 09:59:52;;;;;;;4.55;4.35;;;;;;;;;;5031406;28;20907;-64
2020/12/08 10:02:19;;;;;;;2.03;2.00;;;;;;;;;;5031546;28;20187;-65
2020/12/08 10:04:45;;;;;;;8.35;4.32;;;;;;;;;;5031643;28;20540;-64
2020/12/08 10:07:14;;;;;;;2.60;2.40;;;;;;;;;;5031762;28;20589;-64
2020/12/08 10:09:40;;;;;;;2.85;2.65;;;;;;;;;;5029728;28;20207;-65
2020/12/08 10:12:06;;;;;;;5.65;2.05;;;;;;;;;;5031467;28;20204;-65
2020/12/08 10:14:33;;;;;;;1.63;1.58;;;;;;;;;;5031172;28;20201;-64
2020/12/08 10:16:59;;;;;;;3.03;2.92;;;;;;;;;;5031466;28;20179;-65
2020/12/08 10:19:25;;;;;;;2.15;1.75;;;;;;;;;;5030728;28;20252;-65
2020/12/08 10:21:54;;;;;;;2.47;2.33;;;;;;;;;;5031343;28;20185;-65
2020/12/08 10:24:20;;;;;;;3.00;2.80;;;;;;;;;;5031353;28;20263;-65
2020/12/08 10:26:46;;;;;;;2.90;2.45;;;;;;;;;;5031108;28;20212;-65
2020/12/08 10:29:12;;;;;;;4.70;2.90;;;;;;;;;;5030867;28;20672;-65
2020/12/08 10:31:38;;;;;;;2.35;2.33;;;;;;;;;;5030823;28;20424;-65
2020/12/08 10:34:04;;;;;;;1.70;1.60;;;;;;;;;;5031256;28;20204;-65
2020/12/08 10:36:31;;;;;;;2.08;1.95;;;;;;;;;;5029993;28;20624;-63
2020/12/08 10:38:57;;;;;;;2.75;2.55;;;;;;;;;;5030701;28;20248;-65
2020/12/08 10:41:23;;;;;;;5.35;3.50;;;;;;;;;;5030514;28;20239;-64
2020/12/08 10:43:49;;;;;;;2.67;2.55;;;;;;;;;;5031235;28;20168;-65
2020/12/08 10:46:15;;;;;;;5.35;3.83;;;;;;;;;;5031364;28;20177;-64
2020/12/08 10:48:41;;;;;;;4.38;3.53;;;;;;;;;;5037801;28;20177;-64
2020/12/08 10:51:08;;;;;;;5.20;4.65;;;;;;;;;;5040698;28;20200;-65
2020/12/08 10:53:33;;;;;;;5.03;4.57;;;;;;;;;;5040730;28;20170;-64
2020/12/08 10:55:59;;;;;;;2.95;2.75;;;;;;;;;;5034031;28;20188;-65
2020/12/08 10:58:25;;;;;;;3.33;3.03;;;;;;;;;;5031601;28;20173;-65
2020/12/08 11:00:51;;;;;;;7.83;3.70;;;;;;;;;;5030957;28;20691;-65
2020/12/08 11:03:17;;;;;;;2.97;2.78;;;;;;;;;;5031494;28;20443;-65
2020/12/08 11:05:44;;;;;;;3.55;2.75;;;;;;;;;;5034751;28;20288;-65
2020/12/08 11:08:11;;;;;;;4.10;3.90;;;;;;;;;;5035300;28;20668;-65
2020/12/08 11:10:37;;;;;;;1.77;1.67;;;;;;;;;;5034464;28;20208;-65
2020/12/08 11:13:03;;;;;;;2.97;2.75;;;;;;;;;;5034920;28;20208;-65
2020/12/08 11:15:29;;;;;;;8.80;6.28;;;;;;;;;;5033962;28;20736;-63
2020/12/08 11:17:55;;;;;;;2.20;2.05;;;;;;;;;;5034711;28;20178;-63
2020/12/08 11:20:21;;;;;;;4.30;3.88;;;;;;;;;;5034434;28;20208;-65
2020/12/08 11:22:47;;;;;;;4.93;2.72;;;;;;;;;;5034649;28;20180;-65
2020/12/08 11:25:13;;;;;;;6.30;5.90;;;;;;;;;;5034340;28;20209;-66
2020/12/08 11:27:39;;;;;;;5.60;5.13;;;;;;;;;;5034073;28;20182;-66
2020/12/08 11:30:05;;;;;;;8.07;5.13;;;;;;;;;;5034192;28;20713;-66
2020/12/08 11:32:31;;;;;;;4.07;3.78;;;;;;;;;;5034186;28;20917;-66
2020/12/08 11:34:57;;;;;;;3.00;2.75;;;;;;;;;;5034387;28;20180;-65
2020/12/08 11:37:27;;;;;;;2.53;2.30;;;;;;;;;;5033941;28;20175;-65
2020/12/08 11:39:53;;;;;;;3.13;2.90;;;;;;;;;;5032412;28;20223;-65
2020/12/08 11:42:19;;;;;;;3.30;2.97;;;;;;;;;;5034117;28;20193;-63
2020/12/08 11:44:46;;;;;;;8.07;2.90;;;;;;;;;;5034290;28;20542;-65
2020/12/08 11:47:12;;;;;;;7.70;3.10;;;;;;;;;;5034316;28;20419;-65
2020/12/08 11:49:39;;;;;;;2.55;2.38;;;;;;;;;;5031954;28;20243;-65
2020/12/08 11:52:05;;;;;;;1.75;1.67;;;;;;;;;;5033870;28;20169;-65
2020/12/08 11:54:31;;;;;;;3.55;2.28;;;;;;;;;;5033864;28;20313;-64
2020/12/08 11:56:57;;;;;;;4.32;3.05;;;;;;;;;;5034321;28;20171;-64
2020/12/08 11:59:23;;;;;;;8.30;3.90;;;;;;;;;;5033370;28;20662;-64
2020/12/08 12:01:49;;;;;;;4.47;4.10;;;;;;;;;;5034027;28;20433;-64
2020/12/08 12:04:16;;;;;;;7.63;3.53;;;;;;;;;;5033752;28;20172;-64
2020/12/08 12:06:42;;;;;;;4.97;3.20;;;;;;;;;;5034245;28;20419;-64
2020/12/08 12:09:08;;;;;;;6.45;3.40;;;;;;;;;;5033613;28;20208;-66
2020/12/08 12:11:34;;;;;;;5.40;4.60;;;;;;;;;;5033407;28;20192;-64
2020/12/08 12:14:00;;;;;;;3.50;3.23;;;;;;;;;;5032545;28;20407;-64
2020/12/08 12:16:26;;;;;;;6.60;5.95;;;;;;;;;;5033473;28;20422;-64
2020/12/08 12:18:52;;;;;;;5.88;3.72;;;;;;;;;;5033494;28;20176;-65
2020/12/08 12:21:18;;;;;;;5.60;2.37;;;;;;;;;;5033105;28;20771;-65
2020/12/08 12:23:44;;;;;;;3.10;2.80;;;;;;;;;;5033226;28;20425;-64
2020/12/08 12:26:10;;;;;;;5.10;4.00;;;;;;;;;;5033448;28;20239;-64
2020/12/08 12:28:36;;;;;;;4.23;3.90;;;;;;;;;;5032738;28;20412;-63
2020/12/08 12:31:07;;;;;;;3.15;2.92;;;;;;;;;;5032818;28;20505;-65
2020/12/08 12:33:33;;;;;;;3.55;3.17;;;;;;;;;;5032354;28;20180;-64
2020/12/08 12:35:59;;;;;;;2.45;2.25;;;;;;;;;;5033057;28;20231;-65
2020/12/08 12:38:25;;;;;;;4.53;2.50;;;;;;;;;;5033374;28;20187;-65
2020/12/08 12:40:51;;;;;;;3.10;3.00;;;;;;;;;;5032394;28;20672;-64
2020/12/08 12:43:17;;;;;;;2.85;2.55;;;;;;;;;;5032967;28;20425;-64
2020/12/08 12:45:43;;;;;;;2.70;2.53;;;;;;;;;;5032907;28;20176;-65
2020/12/08 12:48:09;;;;;;;5.43;3.37;;;;;;;;;;5032976;28;20421;-64
2020/12/08 12:50:35;;;;;;;2.50;1.87;;;;;;;;;;5032432;28;20971;-64
2020/12/08 12:53:01;;;;;;;4.32;2.90;;;;;;;;;;5032747;28;20414;-64
2020/12/08 12:55:27;;;;;;;2.08;1.95;;;;;;;;;;5032474;28;20176;-64
2020/12/08 12:57:53;;;;;;;2.92;2.22;;;;;;;;;;5033047;28;20249;-64
2020/12/08 13:00:19;;;;;;;2.50;2.30;;;;;;;;;;5032457;28;20203;-64
2020/12/08 13:02:45;;;;;;;5.30;4.90;;;;;;;;;;5032657;28;20429;-65
2020/12/08 13:05:11;;;;;;;2.85;2.38;;;;;;;;;;5032235;28;20546;-65
2020/12/08 13:07:37;;;;;;;1.23;1.13;;;;;;;;;;5032099;28;20594;-64
2020/12/08 13:10:03;;;;;;;1.03;0.93;;;;;;;;;;5032223;28;20215;-64
2020/12/08 13:12:29;;;;;;;2.42;2.22;;;;;;;;;;5032471;28;20417;-64
2020/12/08 13:14:55;;;;;;;2.60;2.40;;;;;;;;;;5032346;28;20169;-64
2020/12/08 13:17:21;;;;;;;6.07;3.20;;;;;;;;;;5031659;28;20177;-64
2020/12/08 13:19:47;;;;;;;2.05;1.85;;;;;;;;;;5031612;28;20255;-64
2020/12/08 13:22:13;;;;;;;2.33;2.13;;;;;;;;;;5030957;28;20846;-64
2020/12/08 13:24:39;;;;;;;3.58;3.05;;;;;;;;;;5032089;28;20476;-64
2020/12/08 13:27:05;;;;;;;2.20;2.00;;;;;;;;;;5031986;28;20183;-64
2020/12/08 13:29:31;;;;;;;3.95;3.45;;;;;;;;;;5031028;28;20799;-64
2020/12/08 13:31:57;;;;;;;2.58;2.47;;;;;;;;;;5032073;28;20290;-64
2020/12/08 13:34:23;;;;;;;2.10;1.52;;;;;;;;;;5032021;28;20172;-64
2020/12/08 13:36:52;;;;;;;5.10;4.70;;;;;;;;;;5031918;28;20182;-64
2020/12/08 13:39:18;;;;;;;2.40;2.20;;;;;;;;;;5031725;28;20176;-65
2020/12/08 13:41:46;;;;;;;3.00;2.77;;;;;;;;;;5031311;28;20346;-64
2020/12/08 13:44:12;;;;;;;1.92;1.83;;;;;;;;;;5032191;28;20909;-64
2020/12/08 13:46:38;;;;;;;3.60;2.85;;;;;;;;;;5031821;28;20190;-64
2020/12/08 13:49:04;;;;;;;2.20;1.35;;;;;;;;;;5031455;28;20202;-64
2020/12/08 13:51:30;;;;;;;1.73;1.63;;;;;;;;;;5031185;28;20242;-64
2020/12/08 13:53:56;;;;;;;2.40;2.00;;;;;;;;;;5031328;28;20902;-64
2020/12/08 13:56:22;;;;;;;2.43;1.93;;;;;;;;;;5031678;28;20167;-64
2020/12/08 13:58:50;;;;;;;3.23;1.80;;;;;;;;;;5031495;28;20421;-64
2020/12/08 14:01:17;;;;;;;3.05;2.88;;;;;;;;;;5031401;28;20424;-64
2020/12/08 14:03:43;;;;;;;3.67;3.38;;;;;;;;;;5031558;28;20261;-64
2020/12/08 14:06:09;;;;;;;3.20;3.00;;;;;;;;;;5031190;28;20206;-64
2020/12/08 14:08:35;;;;;;;3.80;3.50;;;;;;;;;;5031290;28;20181;-64
2020/12/08 14:11:01;;;;;;;4.53;2.40;;;;;;;;;;5031143;28;20935;-65
2020/12/08 14:13:27;;;;;;;2.90;2.63;;;;;;;;;;5030835;28;20407;-64
2020/12/08 14:15:53;;;;;;;2.08;1.98;;;;;;;;;;5031377;28;20438;-64
2020/12/08 14:18:19;;;;;;;2.47;2.37;;;;;;;;;;5030896;28;20264;-64
2020/12/08 14:20:45;;;;;;;2.70;2.50;;;;;;;;;;5030838;28;20437;-64
2020/12/08 14:23:11;;;;;;;3.28;3.08;;;;;;;;;;5031115;28;20408;-65
2020/12/08 14:25:37;;;;;;;4.07;2.92;;;;;;;;;;5030632;28;20184;-64
2020/12/08 14:28:03;;;;;;;2.08;1.98;;;;;;;;;;5031114;28;20181;-64
2020/12/08 14:30:29;;;;;;;2.13;2.03;;;;;;;;;;5030550;28;20618;-64
2020/12/08 14:32:55;;;;;;;3.05;2.58;;;;;;;;;;5031055;28;20312;-64
2020/12/08 14:35:21;;;;;;;1.73;1.63;;;;;;;;;;5030744;28;20171;-64
2020/12/08 14:37:47;;;;;;;3.43;2.50;;;;;;;;;;5030105;28;20173;-64
2020/12/08 14:40:14;;;;;;;2.95;2.72;;;;;;;;;;5030633;28;20431;-64
2020/12/08 14:42:40;;;;;;;2.38;2.22;;;;;;;;;;5030613;28;20190;-64
2020/12/08 14:45:07;;;;;;;2.88;2.70;;;;;;;;;;5031010;28;20189;-64
2020/12/08 14:47:34;;;;;;;2.58;2.47;;;;;;;;;;5030657;28;20655;-64
2020/12/08 14:50:00;;;;;;;3.08;2.88;;;;;;;;;;5030785;28;20325;-64
2020/12/08 14:52:27;;;;;;;2.20;2.10;;;;;;;;;;5031381;28;20260;-64
2020/12/08 14:54:53;;;;;;;1.40;1.40;;;;;;;;;;5088606;23;20311;-66